createdAt,value
2019-04-25T00:00:22.417Z,0.00
2019-04-25T00:01:22.458Z,0.00
2019-04-25T00:02:22.394Z,0.00
2019-04-25T00:03:22.399Z,0.00
2019-04-25T00:04:22.373Z,0.00
2019-04-25T00:05:22.363Z,0.00
2019-04-25T00:06:23.052Z,0.00
2019-04-25T00:07:22.392Z,0.00
2019-04-25T00:08:22.330Z,0.00
2019-04-25T00:09:22.322Z,0.00
2019-04-25T00:10:22.318Z,0.00
2019-04-25T00:11:22.297Z,0.00
2019-04-25T00:12:22.388Z,0.00
2019-04-25T00:13:22.376Z,0.00
2019-04-25T00:14:22.697Z,0.00
2019-04-25T00:15:22.442Z,0.00
2019-04-25T00:16:22.246Z,0.00
2019-04-25T00:17:22.235Z,0.00
2019-04-25T00:18:23.371Z,0.00
2019-04-25T00:19:22.260Z,0.00
2019-04-25T00:20:22.199Z,4.00
2019-04-25T00:21:22.192Z,4.00
2019-04-25T00:22:22.176Z,4.00
2019-04-25T00:23:22.167Z,4.00
2019-04-25T00:24:23.799Z,4.00
2019-04-25T00:25:22.198Z,4.00
2019-04-25T00:26:22.134Z,8.00
2019-04-25T00:27:23.763Z,8.00
2019-04-25T00:28:22.113Z,4.00
2019-04-25T00:29:22.203Z,8.00
2019-04-25T00:30:22.581Z,12.00
2019-04-25T00:31:22.137Z,12.00
2019-04-25T00:32:22.072Z,16.00
2019-04-25T00:33:22.061Z,16.00
2019-04-25T00:34:22.055Z,20.00
2019-04-25T00:35:22.036Z,20.00
2019-04-25T00:36:22.027Z,20.00
2019-04-25T00:37:22.632Z,24.00
2019-04-25T00:38:22.278Z,28.00
2019-04-25T00:39:21.997Z,32.00
2019-04-25T00:40:22.027Z,36.00
2019-04-25T00:41:21.978Z,40.00
2019-04-25T00:42:23.218Z,48.00
2019-04-25T00:43:22.103Z,52.00
2019-04-25T00:44:22.056Z,60.00
2019-04-25T00:45:22.341Z,68.00
2019-04-25T00:46:22.565Z,76.00
2019-04-25T00:47:21.908Z,80.00
2019-04-25T00:48:22.328Z,88.00
2019-04-25T00:49:23.583Z,88.00
2019-04-25T00:50:22.010Z,92.00
2019-04-25T00:51:21.870Z,100.00
2019-04-25T00:52:22.836Z,116.00
2019-04-25T00:53:21.844Z,132.00
2019-04-25T00:54:22.699Z,144.00
2019-04-25T00:55:28.493Z,148.00
2019-04-25T00:56:48.290Z,152.00
2019-04-25T00:57:46.753Z,152.00
2019-04-25T00:58:46.810Z,152.00
2019-04-25T00:59:46.891Z,156.00
2019-04-25T01:00:46.942Z,164.00
2019-04-25T01:01:47.925Z,168.00
2019-04-25T01:02:47.326Z,172.00
2019-04-25T01:03:47.174Z,180.00
2019-04-25T01:04:47.195Z,192.00
2019-04-25T01:05:47.467Z,212.00
2019-04-25T01:06:47.525Z,228.00
2019-04-25T01:07:46.507Z,252.00
2019-04-25T01:08:46.496Z,276.00
2019-04-25T01:09:46.485Z,300.00
2019-04-25T01:10:46.476Z,320.00
2019-04-25T01:11:46.464Z,336.00
2019-04-25T01:12:46.503Z,348.00
2019-04-25T01:13:46.455Z,368.00
2019-04-25T01:14:46.530Z,400.00
2019-04-25T01:15:46.462Z,448.00
2019-04-25T01:16:46.542Z,496.00
2019-04-25T01:17:46.976Z,536.00
2019-04-25T01:18:46.795Z,552.00
2019-04-25T01:19:46.781Z,544.00
2019-04-25T01:20:46.961Z,532.00
2019-04-25T01:21:46.993Z,532.00
2019-04-25T01:22:47.173Z,540.00
2019-04-25T01:23:47.265Z,552.00
2019-04-25T01:24:47.212Z,576.00
2019-04-25T01:25:47.063Z,624.00
2019-04-25T01:26:46.301Z,704.00
2019-04-25T01:27:46.298Z,812.00
2019-04-25T01:28:46.285Z,932.00
2019-04-25T01:29:46.358Z,1028.00
2019-04-25T01:30:46.385Z,1068.00
2019-04-25T01:31:46.624Z,1060.00
2019-04-25T01:32:46.773Z,1044.00
2019-04-25T01:33:46.773Z,1032.00
2019-04-25T01:34:47.027Z,1016.00
2019-04-25T01:35:47.259Z,1020.00
2019-04-25T01:36:47.177Z,1048.00
2019-04-25T01:37:47.375Z,1076.00
2019-04-25T01:38:47.314Z,1104.00
2019-04-25T01:39:47.448Z,1148.00
2019-04-25T01:40:47.128Z,1172.00
2019-04-25T01:41:47.579Z,1168.00
2019-04-25T01:42:46.180Z,1148.00
2019-04-25T01:43:46.118Z,1156.00
2019-04-25T01:44:46.105Z,1160.00
2019-04-25T01:45:46.096Z,1160.00
2019-04-25T01:46:46.085Z,1140.00
2019-04-25T01:47:46.130Z,1140.00
2019-04-25T01:48:46.073Z,1168.00
2019-04-25T01:49:46.056Z,1240.00
2019-04-25T01:50:46.042Z,1328.00
2019-04-25T01:51:46.028Z,1392.00
2019-04-25T01:52:46.023Z,1440.00
2019-04-25T01:53:46.062Z,1512.00
2019-04-25T01:54:46.000Z,1616.00
2019-04-25T01:55:55.989Z,1716.00
2019-04-25T01:57:10.791Z,1820.00
2019-04-25T01:58:10.779Z,1904.00
2019-04-25T01:59:10.822Z,2072.00
2019-04-25T02:00:10.759Z,2364.00
2019-04-25T02:01:10.749Z,2784.00
2019-04-25T02:02:10.737Z,3224.00
2019-04-25T02:03:10.734Z,3484.00
2019-04-25T02:04:10.715Z,3512.00
2019-04-25T02:05:10.803Z,3520.00
2019-04-25T02:06:10.699Z,3624.00
2019-04-25T02:07:10.684Z,3688.00
2019-04-25T02:08:10.671Z,3616.00
2019-04-25T02:09:10.660Z,3340.00
2019-04-25T02:10:10.650Z,2988.00
2019-04-25T02:11:10.738Z,2716.00
2019-04-25T02:12:10.629Z,2576.00
2019-04-25T02:13:10.617Z,2496.00
2019-04-25T02:14:10.608Z,2412.00
2019-04-25T02:15:10.597Z,2336.00
2019-04-25T02:16:10.838Z,2296.00
2019-04-25T02:17:10.575Z,2280.00
2019-04-25T02:18:10.564Z,2292.00
2019-04-25T02:19:10.554Z,2320.00
2019-04-25T02:20:10.543Z,2360.00
2019-04-25T02:21:10.531Z,2412.00
2019-04-25T02:22:10.572Z,2444.00
2019-04-25T02:23:10.513Z,2440.00
2019-04-25T02:24:10.499Z,2472.00
2019-04-25T02:25:10.489Z,2536.00
2019-04-25T02:26:16.027Z,2628.00
2019-04-25T02:27:35.331Z,2828.00
2019-04-25T02:28:35.321Z,2940.00
2019-04-25T02:29:35.313Z,3016.00
2019-04-25T02:30:35.793Z,3108.00
2019-04-25T02:31:35.288Z,3204.00
2019-04-25T02:32:37.197Z,3284.00
2019-04-25T02:33:35.269Z,3348.00
2019-04-25T02:34:35.263Z,3384.00
2019-04-25T02:35:35.249Z,3412.00
2019-04-25T02:36:35.263Z,3444.00
2019-04-25T02:37:35.317Z,3516.00
2019-04-25T02:38:35.269Z,3640.00
2019-04-25T02:39:37.330Z,3676.00
2019-04-25T02:40:35.199Z,3560.00
2019-04-25T02:41:35.186Z,3368.00
2019-04-25T02:42:35.173Z,3252.00
2019-04-25T02:43:35.334Z,3240.00
2019-04-25T02:44:35.254Z,3268.00
2019-04-25T02:45:35.140Z,3308.00
2019-04-25T02:46:37.240Z,3288.00
2019-04-25T02:47:35.121Z,3220.00
2019-04-25T02:48:35.108Z,3136.00
2019-04-25T02:49:38.882Z,3068.00
2019-04-25T02:50:35.238Z,3092.00
2019-04-25T02:51:35.145Z,3100.00
2019-04-25T02:52:35.064Z,2988.00
2019-04-25T02:53:37.294Z,2860.00
2019-04-25T02:54:35.053Z,2740.00
2019-04-25T02:55:37.565Z,2632.00
2019-04-25T02:56:38.709Z,2596.00
2019-04-25T02:57:35.020Z,2612.00
2019-04-25T02:58:35.006Z,2620.00
2019-04-25T02:59:36.962Z,2672.00
2019-04-25T03:00:51.323Z,2760.00
2019-04-25T03:02:00.731Z,2872.00
2019-04-25T03:03:01.000Z,2912.00
2019-04-25T03:04:00.956Z,2972.00
2019-04-25T03:05:01.173Z,3048.00
2019-04-25T03:06:01.451Z,3120.00
2019-04-25T03:07:00.695Z,3188.00
2019-04-25T03:08:01.270Z,3260.00
2019-04-25T03:09:00.304Z,3324.00
2019-04-25T03:09:59.823Z,3312.00
2019-04-25T03:10:59.892Z,3252.00
2019-04-25T03:11:59.981Z,3160.00
2019-04-25T03:14:00.523Z,3008.00
2019-04-25T03:15:00.126Z,3048.00
2019-04-25T03:16:00.579Z,3276.00
2019-04-25T03:17:00.411Z,3580.00
2019-04-25T03:18:00.202Z,3884.00
2019-04-25T03:19:00.548Z,4160.00
2019-04-25T03:20:01.234Z,4324.00
2019-04-25T03:21:01.163Z,4304.00
2019-04-25T03:22:01.400Z,4052.00
2019-04-25T03:23:01.132Z,3800.00
2019-04-25T03:24:01.320Z,3412.00
2019-04-25T03:25:00.339Z,3060.00
2019-04-25T03:27:00.802Z,2836.00
2019-04-25T03:27:59.678Z,2924.00
2019-04-25T03:28:59.720Z,2984.00
2019-04-25T03:29:59.736Z,3052.00
2019-04-25T03:30:59.856Z,3088.00
2019-04-25T03:32:00.939Z,3116.00
2019-04-25T03:33:02.210Z,3156.00
2019-04-25T03:34:02.182Z,3204.00
2019-04-25T03:35:01.155Z,3292.00
2019-04-25T03:35:59.511Z,3460.00
2019-04-25T03:36:59.500Z,3632.00
2019-04-25T03:38:00.472Z,3744.00
2019-04-25T03:38:59.999Z,3836.00
2019-04-25T03:39:59.468Z,3928.00
2019-04-25T03:41:00.175Z,4000.00
2019-04-25T03:41:59.444Z,3976.00
2019-04-25T03:42:59.435Z,3904.00
2019-04-25T03:43:59.475Z,3908.00
2019-04-25T03:44:59.412Z,3872.00
2019-04-25T03:45:59.399Z,3780.00
2019-04-25T03:46:59.392Z,3672.00
2019-04-25T03:47:59.379Z,3580.00
2019-04-25T03:48:59.369Z,3584.00
2019-04-25T03:49:59.409Z,3624.00
2019-04-25T03:50:59.345Z,3692.00
2019-04-25T03:51:59.336Z,3716.00
2019-04-25T03:52:59.325Z,3744.00
2019-04-25T03:53:59.313Z,3832.00
2019-04-25T03:54:59.302Z,3820.00
2019-04-25T03:56:59.384Z,3680.00
2019-04-25T03:57:59.272Z,3716.00
2019-04-25T03:58:59.259Z,3828.00
2019-04-25T03:59:59.247Z,3944.00
2019-04-25T04:00:59.244Z,4036.00
2019-04-25T04:02:01.165Z,4160.00
2019-04-25T04:02:59.266Z,4308.00
2019-04-25T04:03:59.205Z,4440.00
2019-04-25T04:04:59.194Z,4480.00
2019-04-25T04:05:59.184Z,4424.00
2019-04-25T04:06:59.173Z,4332.00
2019-04-25T04:07:59.162Z,4248.00
2019-04-25T04:08:59.249Z,4220.00
2019-04-25T04:09:59.140Z,4272.00
2019-04-25T04:10:59.130Z,4416.00
2019-04-25T04:11:59.119Z,4580.00
2019-04-25T04:12:59.109Z,4684.00
2019-04-25T04:13:59.098Z,4732.00
2019-04-25T04:14:59.187Z,4744.00
2019-04-25T04:15:59.077Z,4704.00
2019-04-25T04:16:59.064Z,4696.00
2019-04-25T04:17:59.053Z,4696.00
2019-04-25T04:18:59.042Z,4624.00
2019-04-25T04:19:59.032Z,4496.00
2019-04-25T04:20:59.118Z,4428.00
2019-04-25T04:21:59.007Z,4520.00
2019-04-25T04:22:58.997Z,4772.00
2019-04-25T04:23:58.985Z,5200.00
2019-04-25T04:24:58.978Z,5640.00
2019-04-25T04:25:58.966Z,5788.00
2019-04-25T04:27:03.613Z,5512.00
2019-04-25T04:28:23.756Z,5132.00
2019-04-25T04:29:25.495Z,5200.00
2019-04-25T04:30:24.216Z,5272.00
2019-04-25T04:31:23.728Z,4992.00
2019-04-25T04:32:24.250Z,4920.00
2019-04-25T04:33:31.907Z,5184.00
2019-04-25T04:34:48.508Z,5544.00
2019-04-25T04:35:48.497Z,5700.00
2019-04-25T04:36:48.485Z,5896.00
2019-04-25T04:37:48.524Z,6072.00
2019-04-25T04:38:48.538Z,6168.00
2019-04-25T04:39:48.471Z,6176.00
2019-04-25T04:40:48.442Z,6028.00
2019-04-25T04:41:48.432Z,5788.00
2019-04-25T04:42:48.421Z,5620.00
2019-04-25T04:43:48.458Z,5516.00
2019-04-25T04:44:48.400Z,5492.00
2019-04-25T04:45:48.388Z,5492.00
2019-04-25T04:46:48.377Z,5584.00
2019-04-25T04:47:48.367Z,5732.00
2019-04-25T04:48:48.505Z,5952.00
2019-04-25T04:49:48.345Z,6200.00
2019-04-25T04:50:48.337Z,6400.00
2019-04-25T04:51:48.323Z,6572.00
2019-04-25T04:52:48.311Z,6740.00
2019-04-25T04:53:48.300Z,6940.00
2019-04-25T04:54:48.388Z,7332.00
2019-04-25T04:55:48.280Z,7748.00
2019-04-25T04:56:48.266Z,7900.00
2019-04-25T04:57:48.255Z,7868.00
2019-04-25T04:58:48.247Z,7868.00
2019-04-25T04:59:48.234Z,7836.00
2019-04-25T05:00:48.273Z,7612.00
2019-04-25T05:01:48.214Z,7396.00
2019-04-25T05:02:48.202Z,7116.00
2019-04-25T05:03:48.193Z,6764.00
2019-04-25T05:04:48.178Z,6340.00
2019-04-25T05:05:48.226Z,6044.00
2019-04-25T05:06:48.160Z,5904.00
2019-04-25T05:07:48.150Z,5880.00
2019-04-25T05:08:48.140Z,5952.00
2019-04-25T05:09:48.127Z,6084.00
2019-04-25T05:10:48.115Z,6300.00
2019-04-25T05:11:48.154Z,6316.00
2019-04-25T05:12:48.094Z,6232.00
2019-04-25T05:13:48.087Z,6136.00
2019-04-25T05:14:48.073Z,5996.00
2019-04-25T05:15:48.064Z,5728.00
2019-04-25T05:16:49.553Z,5496.00
2019-04-25T05:17:48.125Z,5480.00
2019-04-25T05:18:48.034Z,5580.00
2019-04-25T05:19:48.018Z,5592.00
2019-04-25T05:20:48.010Z,5480.00
2019-04-25T05:21:48.001Z,5380.00
2019-04-25T05:22:48.139Z,5408.00
2019-04-25T05:23:47.978Z,5612.00
2019-04-25T05:24:47.965Z,5984.00
2019-04-25T05:25:47.955Z,6420.00
2019-04-25T05:26:47.942Z,6904.00
2019-04-25T05:27:59.673Z,7400.00
2019-04-25T05:28:49.125Z,7608.00
2019-04-25T05:29:47.912Z,7268.00
2019-04-25T05:30:47.902Z,6736.00
2019-04-25T05:31:47.893Z,6156.00
2019-04-25T05:32:48.013Z,5768.00
2019-04-25T05:33:47.873Z,5720.00
2019-04-25T05:34:49.315Z,6000.00
2019-04-25T05:35:47.849Z,6312.00
2019-04-25T05:36:47.837Z,6208.00
2019-04-25T05:37:47.827Z,5808.00
2019-04-25T05:38:47.818Z,5396.00
2019-04-25T05:39:47.804Z,5184.00
2019-04-25T05:41:47.936Z,5216.00
2019-04-25T05:42:47.774Z,5340.00
2019-04-25T05:43:47.761Z,5564.00
2019-04-25T05:44:47.754Z,5872.00
2019-04-25T05:45:47.740Z,6252.00
2019-04-25T05:46:47.817Z,6588.00
2019-04-25T05:47:47.770Z,6680.00
2019-04-25T05:48:47.710Z,6476.00
2019-04-25T05:49:47.705Z,6164.00
2019-04-25T05:50:47.693Z,5848.00
2019-04-25T05:51:47.677Z,5720.00
2019-04-25T05:52:47.666Z,5764.00
2019-04-25T05:53:47.754Z,5836.00
2019-04-25T05:54:47.646Z,5912.00
2019-04-25T05:55:47.635Z,5944.00
2019-04-25T05:56:47.623Z,5892.00
2019-04-25T05:57:50.113Z,5792.00
2019-04-25T05:58:47.601Z,5684.00
2019-04-25T05:59:47.743Z,5584.00
2019-04-25T06:00:47.580Z,5636.00
2019-04-25T06:01:47.570Z,5824.00
2019-04-25T06:02:47.557Z,5956.00
2019-04-25T06:03:47.548Z,6020.00
2019-04-25T06:04:47.537Z,6176.00
2019-04-25T06:05:47.582Z,6528.00
2019-04-25T06:06:47.515Z,6944.00
2019-04-25T06:07:47.508Z,7096.00
2019-04-25T06:08:47.495Z,6984.00
2019-04-25T06:09:47.485Z,6872.00
2019-04-25T06:10:47.525Z,6836.00
2019-04-25T06:11:47.463Z,6816.00
2019-04-25T06:12:47.451Z,6804.00
2019-04-25T06:13:47.440Z,6876.00
2019-04-25T06:14:47.430Z,7056.00
2019-04-25T06:15:47.668Z,7256.00
2019-04-25T06:16:47.407Z,7404.00
2019-04-25T06:17:47.397Z,7620.00
2019-04-25T06:18:47.384Z,7996.00
2019-04-25T06:19:47.377Z,8404.00
2019-04-25T06:20:47.363Z,8676.00
2019-04-25T06:21:47.455Z,8772.00
2019-04-25T06:22:47.342Z,8704.00
2019-04-25T06:23:47.331Z,8552.00
2019-04-25T06:24:47.321Z,8420.00
2019-04-25T06:25:47.308Z,8364.00
2019-04-25T06:26:47.300Z,8428.00
2019-04-25T06:27:56.369Z,8584.00
2019-04-25T06:29:13.413Z,8952.00
2019-04-25T06:30:12.079Z,9100.00
2019-04-25T06:31:13.678Z,9160.00
2019-04-25T06:32:14.114Z,9056.00
2019-04-25T06:34:13.975Z,8744.00
2019-04-25T06:35:12.024Z,8584.00
2019-04-25T06:36:12.013Z,8252.00
2019-04-25T06:37:12.003Z,7812.00
2019-04-25T06:38:13.373Z,7448.00
2019-04-25T06:39:11.980Z,7232.00
2019-04-25T06:40:13.730Z,6984.00
2019-04-25T06:41:13.445Z,6612.00
2019-04-25T06:42:11.951Z,6140.00
2019-04-25T06:43:13.473Z,5700.00
2019-04-25T06:44:13.617Z,5464.00
2019-04-25T06:45:13.531Z,5388.00
2019-04-25T06:46:12.006Z,5400.00
2019-04-25T06:47:13.042Z,5392.00
2019-04-25T06:48:11.883Z,5296.00
2019-04-25T06:49:13.399Z,5136.00
2019-04-25T06:50:11.859Z,5012.00
2019-04-25T06:51:13.417Z,4936.00
2019-04-25T06:52:11.887Z,4856.00
2019-04-25T06:53:13.478Z,4776.00
2019-04-25T06:54:13.460Z,4736.00
2019-04-25T06:55:11.806Z,4764.00
2019-04-25T06:56:13.568Z,4808.00
2019-04-25T06:57:11.786Z,4812.00
2019-04-25T06:58:14.072Z,4764.00
2019-04-25T06:59:13.557Z,4716.00
2019-04-25T07:00:11.750Z,4716.00
2019-04-25T07:01:13.315Z,4768.00
2019-04-25T07:02:11.730Z,4860.00
2019-04-25T07:03:11.718Z,4944.00
2019-04-25T07:04:11.757Z,5020.00
2019-04-25T07:05:25.595Z,5052.00
2019-04-25T07:06:12.980Z,5024.00
2019-04-25T07:07:14.358Z,4928.00
2019-04-25T07:08:13.193Z,4796.00
2019-04-25T07:09:11.652Z,4652.00
2019-04-25T07:10:13.247Z,4516.00
2019-04-25T07:11:11.632Z,4372.00
2019-04-25T07:12:13.397Z,4280.00
2019-04-25T07:13:11.608Z,4280.00
2019-04-25T07:14:11.596Z,4380.00
2019-04-25T07:15:11.639Z,4540.00
2019-04-25T07:16:13.278Z,4720.00
2019-04-25T07:17:11.570Z,4852.00
2019-04-25T07:18:11.561Z,4848.00
2019-04-25T07:19:11.551Z,4744.00
2019-04-25T07:20:11.540Z,4620.00
2019-04-25T07:21:11.570Z,4600.00
2019-04-25T07:22:11.517Z,4732.00
2019-04-25T07:23:11.501Z,4960.00
2019-04-25T07:24:11.489Z,5312.00
2019-04-25T07:25:13.086Z,5780.00
2019-04-25T07:26:11.466Z,6304.00
2019-04-25T07:27:11.558Z,6824.00
2019-04-25T07:28:22.222Z,7480.00
2019-04-25T07:29:13.448Z,8612.00
2019-04-25T07:30:11.426Z,9716.00
2019-04-25T07:31:11.417Z,10340.00
2019-04-25T07:32:11.552Z,10908.00
2019-04-25T07:33:11.394Z,11648.00
2019-04-25T07:34:11.379Z,11788.00
2019-04-25T07:35:11.368Z,11576.00
2019-04-25T07:36:11.438Z,11288.00
2019-04-25T07:37:13.147Z,11172.00
2019-04-25T07:38:11.388Z,11320.00
2019-04-25T07:39:11.325Z,11628.00
2019-04-25T07:40:11.317Z,11664.00
2019-04-25T07:41:14.076Z,11708.00
2019-04-25T07:42:11.294Z,11912.00
2019-04-25T07:43:11.283Z,12060.00
2019-04-25T07:44:11.372Z,12452.00
2019-04-25T07:45:11.321Z,12796.00
2019-04-25T07:46:11.259Z,12948.00
2019-04-25T07:47:11.246Z,12816.00
2019-04-25T07:48:11.230Z,12748.00
2019-04-25T07:49:11.218Z,12756.00
2019-04-25T07:50:11.356Z,12612.00
2019-04-25T07:51:11.198Z,12448.00
2019-04-25T07:52:11.593Z,12556.00
2019-04-25T07:53:11.173Z,12492.00
2019-04-25T07:54:11.163Z,12276.00
2019-04-25T07:55:11.156Z,12012.00
2019-04-25T07:56:11.241Z,11776.00
2019-04-25T07:57:11.133Z,11396.00
2019-04-25T07:58:11.124Z,10772.00
2019-04-25T07:59:11.111Z,10232.00
2019-04-25T08:00:11.102Z,9964.00
2019-04-25T08:01:11.091Z,9728.00
2019-04-25T08:02:13.271Z,9576.00
2019-04-25T08:03:11.070Z,9520.00
2019-04-25T08:04:11.060Z,9724.00
2019-04-25T08:05:11.050Z,9928.00
2019-04-25T08:06:11.039Z,9760.00
2019-04-25T08:07:11.379Z,9300.00
2019-04-25T08:08:11.021Z,8824.00
2019-04-25T08:09:11.007Z,8436.00
2019-04-25T08:10:10.993Z,8004.00
2019-04-25T08:11:10.987Z,7596.00
2019-04-25T08:12:11.323Z,7276.00
2019-04-25T08:13:10.962Z,7004.00
2019-04-25T08:14:10.956Z,6780.00
2019-04-25T08:15:10.940Z,6720.00
2019-04-25T08:16:10.930Z,6932.00
2019-04-25T08:17:10.921Z,7376.00
2019-04-25T08:18:10.955Z,7832.00
2019-04-25T08:19:10.897Z,8220.00
2019-04-25T08:20:10.885Z,8272.00
2019-04-25T08:21:10.877Z,7916.00
2019-04-25T08:22:10.866Z,7476.00
2019-04-25T08:23:10.853Z,7160.00
2019-04-25T08:24:10.892Z,7120.00
2019-04-25T08:25:10.830Z,7304.00
2019-04-25T08:26:10.820Z,7584.00
2019-04-25T08:27:10.810Z,7880.00
2019-04-25T08:28:10.804Z,8072.00
2019-04-25T08:29:10.791Z,8288.00
2019-04-25T08:30:11.031Z,8576.00
2019-04-25T08:31:10.769Z,8784.00
2019-04-25T08:32:10.757Z,8804.00
2019-04-25T08:33:10.741Z,8872.00
2019-04-25T08:34:10.732Z,8860.00
2019-04-25T08:35:10.719Z,8432.00
2019-04-25T08:36:10.758Z,8180.00
2019-04-25T08:37:18.191Z,8408.00
2019-04-25T08:38:36.107Z,8908.00
2019-04-25T08:39:37.323Z,8780.00
2019-04-25T08:40:37.310Z,8596.00
2019-04-25T08:41:36.045Z,9036.00
2019-04-25T08:42:36.691Z,9728.00
2019-04-25T08:43:37.804Z,10080.00
2019-04-25T08:44:35.981Z,9888.00
2019-04-25T08:45:37.044Z,9352.00
2019-04-25T08:46:36.843Z,8732.00
2019-04-25T08:47:36.170Z,8288.00
2019-04-25T08:48:35.812Z,7840.00
2019-04-25T08:49:36.257Z,7364.00
2019-04-25T08:50:38.656Z,6844.00
2019-04-25T08:51:36.094Z,6388.00
2019-04-25T08:52:36.324Z,5960.00
2019-04-25T08:53:36.538Z,5568.00
2019-04-25T08:54:39.706Z,5620.00
2019-04-25T08:56:00.138Z,6480.00
2019-04-25T08:57:00.127Z,7444.00
2019-04-25T08:58:00.134Z,8556.00
2019-04-25T08:59:04.169Z,9600.00
2019-04-25T09:00:24.912Z,10064.00
2019-04-25T09:01:24.903Z,9944.00
2019-04-25T09:02:24.891Z,9724.00
2019-04-25T09:03:24.881Z,9616.00
2019-04-25T09:05:24.909Z,9976.00
2019-04-25T09:06:24.848Z,9916.00
2019-04-25T09:07:24.841Z,9552.00
2019-04-25T09:08:24.830Z,8744.00
2019-04-25T09:09:24.820Z,7880.00
2019-04-25T09:10:24.810Z,7356.00
2019-04-25T09:11:25.049Z,7204.00
2019-04-25T09:12:24.788Z,7336.00
2019-04-25T09:13:24.780Z,7364.00
2019-04-25T09:14:24.770Z,7356.00
2019-04-25T09:15:24.759Z,7356.00
2019-04-25T09:16:24.750Z,7460.00
2019-04-25T09:17:24.790Z,7536.00
2019-04-25T09:18:24.727Z,7488.00
2019-04-25T09:19:24.716Z,7788.00
2019-04-25T09:20:24.708Z,9036.00
2019-04-25T09:21:24.698Z,10056.00
2019-04-25T09:22:24.685Z,10004.00
2019-04-25T09:23:24.726Z,9112.00
2019-04-25T09:24:24.709Z,8124.00
2019-04-25T09:25:24.655Z,7748.00
2019-04-25T09:26:24.648Z,8320.00
2019-04-25T09:27:24.634Z,9332.00
2019-04-25T09:28:24.624Z,9804.00
2019-04-25T09:29:24.766Z,9552.00
2019-04-25T09:30:24.603Z,9084.00
2019-04-25T09:31:24.594Z,8688.00
2019-04-25T09:32:24.584Z,8080.00
2019-04-25T09:33:24.574Z,7716.00
2019-04-25T09:34:24.567Z,8028.00
2019-04-25T09:36:24.589Z,7960.00
2019-04-25T09:37:24.701Z,7280.00
2019-04-25T09:38:24.521Z,6416.00
2019-04-25T09:39:24.514Z,5356.00
2019-04-25T09:40:24.501Z,4616.00
2019-04-25T09:41:24.490Z,4500.00
2019-04-25T09:43:24.574Z,4620.00
2019-04-25T09:44:24.460Z,4756.00
2019-04-25T09:45:26.310Z,4868.00
2019-04-25T09:46:24.442Z,4924.00
2019-04-25T09:47:24.432Z,5000.00
2019-04-25T09:48:24.416Z,5172.00
2019-04-25T09:49:24.507Z,5520.00
2019-04-25T09:50:24.398Z,5860.00
2019-04-25T09:51:24.389Z,6128.00
2019-04-25T09:52:24.474Z,6144.00
2019-04-25T09:53:25.996Z,6000.00
2019-04-25T09:54:24.365Z,5804.00
2019-04-25T09:55:24.398Z,5632.00
2019-04-25T09:56:24.336Z,5776.00
2019-04-25T09:57:24.324Z,6420.00
2019-04-25T09:58:24.317Z,6884.00
2019-04-25T09:59:27.948Z,7356.00
2019-04-25T10:00:24.445Z,7692.00
2019-04-25T10:01:24.284Z,7888.00
2019-04-25T10:02:24.276Z,7944.00
2019-04-25T10:03:24.261Z,7740.00
2019-04-25T10:04:24.253Z,7684.00
2019-04-25T10:05:24.245Z,7772.00
2019-04-25T10:06:24.287Z,7884.00
2019-04-25T10:07:24.221Z,7764.00
2019-04-25T10:08:24.296Z,7444.00
2019-04-25T10:09:24.205Z,6816.00
2019-04-25T10:10:24.221Z,6424.00
2019-04-25T10:11:24.183Z,6256.00
2019-04-25T10:12:24.224Z,6060.00
2019-04-25T10:13:25.250Z,5904.00
2019-04-25T10:14:24.535Z,6000.00
2019-04-25T10:15:24.139Z,6060.00
2019-04-25T10:16:24.128Z,5780.00
2019-04-25T10:17:24.618Z,5660.00
2019-04-25T10:18:24.111Z,5688.00
2019-04-25T10:19:24.100Z,5768.00
2019-04-25T10:20:24.088Z,5660.00
2019-04-25T10:21:24.077Z,5408.00
2019-04-25T10:22:24.118Z,5196.00
2019-04-25T10:23:24.164Z,5020.00
2019-04-25T10:24:24.050Z,4888.00
2019-04-25T10:25:24.035Z,4876.00
2019-04-25T10:26:24.027Z,4964.00
2019-04-25T10:27:24.221Z,5108.00
2019-04-25T10:28:24.006Z,5268.00
2019-04-25T10:29:23.998Z,5412.00
2019-04-25T10:30:25.918Z,5572.00
2019-04-25T10:31:23.974Z,5676.00
2019-04-25T10:32:23.965Z,5648.00
2019-04-25T10:33:24.370Z,5480.00
2019-04-25T10:34:24.219Z,5308.00
2019-04-25T10:35:23.974Z,5236.00
2019-04-25T10:36:24.663Z,5096.00
2019-04-25T10:37:23.913Z,4788.00
2019-04-25T10:38:24.198Z,4424.00
2019-04-25T10:39:23.982Z,4176.00
2019-04-25T10:40:25.043Z,4096.00
2019-04-25T10:41:24.440Z,4124.00
2019-04-25T10:42:23.991Z,4076.00
2019-04-25T10:43:24.068Z,4024.00
2019-04-25T10:44:24.523Z,3984.00
2019-04-25T10:45:25.945Z,4000.00
2019-04-25T10:46:24.433Z,4144.00
2019-04-25T10:47:23.812Z,4244.00
2019-04-25T10:48:24.118Z,4064.00
2019-04-25T10:49:23.786Z,3836.00
2019-04-25T10:51:24.076Z,4424.00
2019-04-25T10:52:23.751Z,4572.00
2019-04-25T10:53:25.182Z,4512.00
2019-04-25T10:54:23.731Z,4364.00
2019-04-25T10:55:23.721Z,4140.00
2019-04-25T10:56:24.309Z,3764.00
2019-04-25T10:57:24.930Z,3464.00
2019-04-25T10:58:23.687Z,3292.00
2019-04-25T10:59:23.702Z,3152.00
2019-04-25T11:00:24.136Z,3304.00
2019-04-25T11:01:24.399Z,3444.00
2019-04-25T11:02:23.677Z,3716.00
2019-04-25T11:03:24.133Z,4044.00
2019-04-25T11:04:23.624Z,4044.00
2019-04-25T11:05:23.913Z,4088.00
2019-04-25T11:06:23.607Z,4200.00
2019-04-25T11:07:23.590Z,4480.00
2019-04-25T11:08:24.550Z,4824.00
2019-04-25T11:09:24.281Z,4972.00
2019-04-25T11:10:23.658Z,5028.00
2019-04-25T11:11:24.100Z,5184.00
2019-04-25T11:12:23.604Z,5404.00
2019-04-25T11:13:23.528Z,5612.00
2019-04-25T11:14:23.977Z,5816.00
2019-04-25T11:15:23.604Z,6128.00
2019-04-25T11:16:24.220Z,6736.00
2019-04-25T11:17:24.278Z,7336.00
2019-04-25T11:18:23.838Z,7548.00
2019-04-25T11:19:23.964Z,7468.00
2019-04-25T11:20:23.456Z,7252.00
2019-04-25T11:22:23.984Z,6656.00
2019-04-25T11:23:23.425Z,6252.00
2019-04-25T11:24:23.805Z,6104.00
2019-04-25T11:25:24.046Z,6208.00
2019-04-25T11:26:23.390Z,6112.00
2019-04-25T11:27:23.962Z,6052.00
2019-04-25T11:28:23.623Z,6068.00
2019-04-25T11:29:24.021Z,6148.00
2019-04-25T11:30:23.373Z,6144.00
2019-04-25T11:31:23.639Z,6112.00
2019-04-25T11:32:23.819Z,6176.00
2019-04-25T11:33:24.651Z,6064.00
2019-04-25T11:34:23.414Z,5460.00
2019-04-25T11:35:24.188Z,4504.00
2019-04-25T11:36:24.865Z,4200.00
2019-04-25T11:37:23.908Z,4540.00
2019-04-25T11:38:23.736Z,4872.00
2019-04-25T11:39:23.939Z,5452.00
2019-04-25T11:40:23.494Z,5848.00
2019-04-25T11:41:24.244Z,4972.00
2019-04-25T11:42:23.378Z,4296.00
2019-04-25T11:43:23.216Z,4040.00
2019-04-25T11:44:24.557Z,4204.00
2019-04-25T11:45:23.292Z,5148.00
2019-04-25T11:46:24.174Z,5824.00
2019-04-25T11:47:24.258Z,5468.00
2019-04-25T11:48:23.827Z,4496.00
2019-04-25T11:49:23.843Z,3916.00
2019-04-25T11:50:23.141Z,3672.00
2019-04-25T11:51:24.023Z,3672.00
2019-04-25T11:52:28.198Z,3872.00
2019-04-25T11:53:48.458Z,3856.00
2019-04-25T11:54:48.176Z,3344.00
2019-04-25T11:55:49.289Z,2504.00
2019-04-25T11:56:48.630Z,2240.00
2019-04-25T11:57:50.068Z,2384.00
2019-04-25T11:58:48.900Z,2936.00
2019-04-25T11:59:49.306Z,3152.00
2019-04-25T12:00:48.834Z,2836.00
2019-04-25T12:01:47.839Z,2656.00
2019-04-25T12:02:47.878Z,2536.00
2019-04-25T12:03:48.960Z,2236.00
2019-04-25T12:04:48.163Z,1928.00
2019-04-25T12:05:48.395Z,1792.00
2019-04-25T12:06:47.787Z,1876.00
2019-04-25T12:07:47.956Z,2032.00
2019-04-25T12:08:47.810Z,2136.00
2019-04-25T12:09:48.144Z,2164.00
2019-04-25T12:10:47.901Z,2088.00
2019-04-25T12:11:48.517Z,1908.00
2019-04-25T12:12:47.721Z,1692.00
2019-04-25T12:13:48.105Z,1528.00
2019-04-25T12:14:47.949Z,1424.00
2019-04-25T12:15:47.687Z,1300.00
2019-04-25T12:16:50.087Z,1204.00
2019-04-25T12:17:47.668Z,1124.00
2019-04-25T12:18:50.029Z,1080.00
2019-04-25T12:19:47.646Z,1088.00
2019-04-25T12:20:48.703Z,1112.00
2019-04-25T12:21:48.170Z,1096.00
2019-04-25T12:22:48.290Z,1056.00
2019-04-25T12:23:48.727Z,1080.00